createdAt,value
2022-12-11T00:00:43.768Z,10.88
2022-12-11T00:03:15.919Z,12.45
2022-12-11T00:05:46.054Z,13.27
2022-12-11T00:08:15.658Z,19.30
2022-12-11T00:10:49.761Z,18.90
2022-12-11T00:13:19.512Z,12.90
2022-12-11T00:15:47.863Z,11.93
2022-12-11T00:18:16.310Z,13.13
2022-12-11T00:20:44.673Z,13.00
2022-12-11T00:23:13.396Z,11.45
2022-12-11T00:25:44.059Z,12.18
2022-12-11T00:28:12.864Z,12.18
2022-12-11T00:30:43.921Z,11.57
2022-12-11T00:33:13.132Z,11.40
2022-12-11T00:35:41.897Z,11.32
2022-12-11T00:38:10.988Z,11.73
2022-12-11T00:40:39.655Z,15.90
2022-12-11T00:43:08.101Z,15.13
2022-12-11T00:45:38.299Z,15.35
2022-12-11T00:48:09.120Z,13.52
2022-12-11T00:50:37.795Z,12.68
2022-12-11T00:53:07.887Z,11.85
2022-12-11T00:55:39.175Z,11.15
2022-12-11T00:58:08.169Z,11.75
2022-12-11T01:00:36.567Z,12.57
2022-12-11T01:03:05.485Z,13.20
2022-12-11T01:05:35.458Z,14.05
2022-12-11T01:08:04.238Z,15.70
2022-12-11T01:10:31.795Z,12.55
2022-12-11T01:13:02.264Z,13.85
2022-12-11T01:15:32.461Z,13.70
2022-12-11T01:18:00.902Z,12.20
2022-12-11T01:20:29.710Z,15.82
2022-12-11T01:23:01.223Z,12.30
2022-12-11T01:25:30.747Z,12.75
2022-12-11T01:27:59.092Z,15.70
2022-12-11T01:30:28.363Z,11.52
2022-12-11T01:32:56.736Z,12.35
2022-12-11T01:35:25.255Z,11.63
2022-12-11T01:37:53.715Z,10.85
2022-12-11T01:40:24.310Z,11.77
2022-12-11T01:42:52.722Z,11.95
2022-12-11T01:45:38.941Z,12.13
2022-12-11T01:48:11.024Z,12.73
2022-12-11T01:50:43.928Z,12.18
2022-12-11T01:53:18.907Z,12.43
2022-12-11T01:55:50.096Z,12.35
2022-12-11T01:58:20.103Z,12.82
2022-12-11T02:00:48.783Z,12.75
2022-12-11T02:03:17.175Z,13.00
2022-12-11T02:05:45.670Z,11.90
2022-12-11T02:08:14.867Z,12.98
2022-12-11T02:11:02.849Z,12.77
2022-12-11T02:13:40.949Z,14.00
2022-12-11T02:16:18.511Z,13.63
2022-12-11T02:18:55.244Z,13.57
2022-12-11T02:21:28.335Z,13.13
2022-12-11T02:24:23.581Z,13.55
2022-12-11T02:27:20.028Z,12.80
2022-12-11T02:29:55.585Z,15.98
2022-12-11T02:32:28.485Z,18.77
2022-12-11T02:35:01.555Z,15.90
2022-12-11T02:37:33.890Z,14.18
2022-12-11T02:40:06.025Z,13.55
2022-12-11T02:42:35.651Z,13.73
2022-12-11T02:45:09.052Z,14.00
2022-12-11T02:50:12.683Z,11.95
2022-12-11T02:52:42.916Z,12.20
2022-12-11T02:55:14.114Z,12.65
2022-12-11T02:57:47.150Z,12.70
2022-12-11T03:00:19.089Z,12.25
2022-12-11T03:02:47.756Z,12.25
2022-12-11T03:05:16.956Z,13.93
2022-12-11T03:07:46.550Z,13.48
2022-12-11T03:10:19.172Z,14.38
2022-12-11T03:12:53.734Z,14.57
2022-12-11T03:15:33.190Z,14.18
2022-12-11T03:18:10.276Z,14.10
2022-12-11T03:20:44.433Z,15.93
2022-12-11T03:23:23.081Z,14.18
2022-12-11T03:25:56.807Z,12.15
2022-12-11T03:28:30.529Z,12.77
2022-12-11T03:31:06.853Z,11.00
2022-12-11T03:33:38.942Z,10.70
2022-12-11T03:36:11.691Z,9.75
2022-12-11T03:38:49.315Z,10.57
2022-12-11T03:41:20.582Z,9.30
2022-12-11T03:43:52.804Z,9.05
2022-12-11T03:46:25.931Z,10.00
2022-12-11T03:48:57.965Z,10.40
2022-12-11T03:51:27.469Z,9.18
2022-12-11T03:53:57.450Z,10.10
2022-12-11T03:56:28.768Z,9.55
2022-12-11T03:58:57.380Z,9.30
2022-12-11T04:01:27.248Z,9.88
2022-12-11T04:03:55.849Z,9.77
2022-12-11T04:06:24.329Z,10.50
2022-12-11T04:08:52.756Z,11.82
2022-12-11T04:11:36.254Z,10.48
2022-12-11T04:14:23.594Z,11.20
2022-12-11T04:16:54.262Z,11.20
2022-12-11T04:19:40.891Z,11.20
2022-12-11T04:22:28.138Z,11.80
2022-12-11T04:24:56.490Z,12.27
2022-12-11T04:27:42.859Z,12.02
2022-12-11T04:30:15.052Z,12.20
2022-12-11T04:32:44.960Z,11.23
2022-12-11T04:35:14.342Z,13.18
2022-12-11T04:37:43.405Z,13.77
2022-12-11T04:40:14.754Z,12.57
2022-12-11T04:42:43.136Z,14.40
2022-12-11T04:45:12.961Z,13.10
2022-12-11T04:47:42.977Z,13.68
2022-12-11T04:50:15.272Z,14.70
2022-12-11T04:52:43.895Z,13.90
2022-12-11T04:55:13.721Z,14.07
2022-12-11T04:57:42.773Z,13.48
2022-12-11T05:00:13.796Z,15.23
2022-12-11T05:02:43.538Z,14.30
2022-12-11T05:05:14.729Z,15.02
2022-12-11T05:07:43.687Z,14.27
2022-12-11T05:10:12.284Z,14.18
2022-12-11T05:12:40.776Z,13.25
2022-12-11T05:15:10.218Z,13.98
2022-12-11T05:17:38.987Z,14.95
2022-12-11T05:20:08.423Z,13.60
2022-12-11T05:22:39.505Z,13.30
2022-12-11T05:25:09.524Z,13.93
2022-12-11T05:27:38.247Z,14.07
2022-12-11T05:30:08.221Z,13.27
2022-12-11T05:32:36.894Z,13.88
2022-12-11T05:35:05.697Z,14.80
2022-12-11T05:37:35.218Z,13.25
2022-12-11T05:40:06.674Z,13.75
2022-12-11T05:42:35.347Z,14.60
2022-12-11T05:45:03.825Z,14.32
2022-12-11T05:47:33.090Z,14.15
2022-12-11T05:50:01.627Z,13.70
2022-12-11T05:52:30.100Z,13.18
2022-12-11T05:54:58.509Z,13.20
2022-12-11T05:57:28.364Z,14.20
2022-12-11T05:59:56.751Z,14.43
2022-12-11T06:02:25.574Z,13.75
2022-12-11T06:04:54.139Z,13.60
2022-12-11T06:07:22.591Z,14.13
2022-12-11T06:09:51.065Z,13.00
2022-12-11T06:12:19.402Z,12.98
2022-12-11T06:14:49.516Z,12.98
2022-12-11T06:17:17.955Z,12.25
2022-12-11T06:19:46.368Z,12.35
2022-12-11T06:22:14.754Z,12.80
2022-12-11T06:24:43.525Z,12.63
2022-12-11T06:27:11.876Z,12.73
2022-12-11T06:29:40.386Z,11.95
2022-12-11T06:32:10.583Z,10.77
2022-12-11T06:34:39.062Z,12.02
2022-12-11T06:37:07.445Z,12.63
2022-12-11T06:39:35.763Z,11.90
2022-12-11T06:42:04.076Z,13.18
2022-12-11T06:44:32.487Z,12.73
2022-12-11T06:47:00.870Z,11.35
2022-12-11T06:49:30.648Z,12.23
2022-12-11T06:51:59.025Z,12.50
2022-12-11T06:54:28.171Z,13.70
2022-12-11T06:56:56.675Z,13.45
2022-12-11T06:59:26.383Z,13.55
2022-12-11T07:01:54.793Z,12.68
2022-12-11T07:04:25.105Z,11.90
2022-12-11T07:06:55.381Z,13.07
2022-12-11T07:09:24.158Z,12.57
2022-12-11T07:11:52.767Z,11.50
2022-12-11T07:14:21.410Z,11.77
2022-12-11T07:16:49.788Z,11.35
2022-12-11T07:19:18.668Z,11.48
2022-12-11T07:21:46.944Z,12.32
2022-12-11T07:24:17.236Z,12.98
2022-12-11T07:26:45.657Z,12.07
2022-12-11T07:29:14.013Z,12.27
2022-12-11T07:31:42.449Z,13.70
2022-12-11T07:34:14.664Z,12.90
2022-12-11T07:36:43.705Z,13.43
2022-12-11T07:39:13.501Z,13.60
2022-12-11T07:41:43.300Z,13.27
2022-12-11T07:44:12.170Z,14.50
2022-12-11T07:46:41.892Z,12.57
2022-12-11T07:49:10.324Z,13.25
2022-12-11T07:51:39.489Z,13.07
2022-12-11T07:54:10.849Z,12.60
2022-12-11T07:56:41.917Z,12.95
2022-12-11T07:59:14.345Z,15.82
2022-12-11T08:01:43.456Z,12.98
2022-12-11T08:04:15.913Z,12.18
2022-12-11T08:06:44.851Z,12.93
2022-12-11T08:09:21.082Z,13.20
2022-12-11T08:11:50.126Z,14.48
2022-12-11T08:14:20.111Z,12.55
2022-12-11T08:16:49.098Z,13.00
2022-12-11T08:19:18.573Z,13.63
2022-12-11T08:21:47.013Z,12.48
2022-12-11T08:24:16.599Z,12.20
2022-12-11T08:26:44.905Z,12.75
2022-12-11T08:29:13.196Z,13.07
2022-12-11T08:31:43.333Z,13.13
2022-12-11T08:34:14.284Z,12.48
2022-12-11T08:36:44.082Z,14.02
2022-12-11T08:39:12.434Z,13.35
2022-12-11T08:41:40.846Z,12.52
2022-12-11T08:44:16.351Z,12.95
2022-12-11T08:46:48.278Z,10.77
2022-12-11T08:49:16.625Z,9.88
2022-12-11T08:51:45.414Z,8.68
2022-12-11T08:54:13.674Z,8.77
2022-12-11T08:56:42.240Z,9.43
2022-12-11T08:59:11.098Z,8.50
2022-12-11T09:01:39.794Z,8.80
2022-12-11T09:04:09.728Z,9.18
2022-12-11T09:06:37.989Z,9.77
2022-12-11T09:09:06.738Z,8.32
2022-12-11T09:11:38.008Z,8.50
2022-12-11T09:14:08.258Z,9.88
2022-12-11T09:16:40.948Z,11.13
2022-12-11T09:19:14.422Z,9.52
2022-12-11T09:21:44.107Z,9.45
2022-12-11T09:24:13.997Z,10.38
2022-12-11T09:26:42.692Z,12.98
2022-12-11T09:29:13.737Z,12.57
2022-12-11T09:31:42.526Z,11.73
2022-12-11T09:34:14.717Z,12.50
2022-12-11T09:36:44.460Z,10.05
2022-12-11T09:39:13.869Z,10.18
2022-12-11T09:41:54.884Z,10.27
2022-12-11T09:44:36.211Z,9.55
2022-12-11T09:47:05.188Z,9.02
2022-12-11T09:49:41.351Z,8.43
2022-12-11T09:52:15.580Z,9.95
2022-12-11T09:54:50.600Z,10.93
2022-12-11T09:57:31.056Z,10.43
2022-12-11T10:00:15.432Z,9.18
2022-12-11T10:03:11.537Z,9.80
2022-12-11T10:05:48.967Z,9.02
2022-12-11T10:08:23.153Z,8.93
2022-12-11T10:11:00.413Z,11.13
2022-12-11T10:13:37.983Z,8.25
2022-12-11T10:16:16.943Z,7.60
2022-12-11T10:18:45.824Z,7.72
2022-12-11T10:21:18.332Z,7.50
2022-12-11T10:23:54.987Z,6.53
2022-12-11T10:26:24.488Z,6.05
2022-12-11T10:28:53.281Z,7.38
2022-12-11T10:31:26.506Z,8.57
2022-12-11T10:34:01.669Z,7.72
2022-12-11T10:36:33.131Z,7.45
2022-12-11T10:39:02.743Z,7.30
2022-12-11T10:41:39.872Z,9.75
2022-12-11T10:44:18.544Z,7.10
2022-12-11T10:46:48.425Z,8.18
2022-12-11T10:49:27.268Z,7.80
2022-12-11T10:52:01.462Z,7.47
2022-12-11T10:54:38.380Z,8.00
2022-12-11T10:57:10.206Z,6.72
2022-12-11T10:59:42.566Z,7.45
2022-12-11T11:02:23.393Z,7.43
2022-12-11T11:04:52.729Z,7.25
2022-12-11T11:07:25.397Z,6.40
2022-12-11T11:10:16.515Z,6.07
2022-12-11T11:12:46.693Z,6.75
2022-12-11T11:15:16.760Z,7.10
2022-12-11T11:17:54.637Z,7.32
2022-12-11T11:20:26.265Z,6.95
2022-12-11T11:22:58.376Z,7.18
2022-12-11T11:25:29.020Z,6.55
2022-12-11T11:27:59.422Z,6.03
2022-12-11T11:30:30.296Z,6.70
2022-12-11T11:33:02.416Z,11.18
2022-12-11T11:35:32.675Z,6.32
2022-12-11T11:38:19.588Z,7.90
2022-12-11T11:40:57.047Z,6.55
2022-12-11T11:43:37.092Z,5.63
2022-12-11T11:46:10.428Z,6.00
2022-12-11T11:48:47.240Z,5.15
2022-12-11T11:51:20.204Z,4.95
2022-12-11T11:53:53.045Z,5.82
2022-12-11T11:56:24.918Z,6.03
2022-12-11T11:59:04.598Z,6.05
2022-12-11T12:01:33.220Z,6.57
2022-12-11T12:04:04.300Z,6.20
2022-12-11T12:06:58.150Z,5.72
2022-12-11T12:09:43.732Z,5.45
2022-12-11T12:12:27.420Z,5.18
2022-12-11T12:15:18.402Z,5.25
2022-12-11T12:17:56.080Z,5.70
2022-12-11T12:20:31.072Z,4.57
2022-12-11T12:23:13.041Z,5.28
2022-12-11T12:25:50.446Z,5.53
2022-12-11T12:28:32.623Z,5.50
2022-12-11T12:31:14.859Z,5.95
2022-12-11T12:33:55.264Z,6.00
2022-12-11T12:36:29.121Z,5.30
2022-12-11T12:39:04.077Z,6.00
2022-12-11T12:41:42.904Z,6.10
2022-12-11T12:44:20.367Z,6.43
2022-12-11T12:46:59.326Z,6.22
2022-12-11T12:49:41.581Z,5.97
2022-12-11T12:52:16.989Z,5.95
2022-12-11T12:55:10.214Z,5.57
2022-12-11T12:57:43.913Z,6.68
2022-12-11T13:00:13.753Z,6.05
2022-12-11T13:02:50.702Z,5.75
2022-12-11T13:05:24.680Z,6.65
2022-12-11T13:07:56.023Z,6.93
2022-12-11T13:10:28.668Z,6.63
2022-12-11T13:12:58.799Z,6.87
2022-12-11T13:15:39.200Z,7.10
2022-12-11T13:18:32.640Z,7.35
2022-12-11T13:21:01.448Z,7.15
2022-12-11T13:23:31.426Z,6.97
2022-12-11T13:26:02.448Z,6.13
2022-12-11T13:28:35.008Z,7.30
2022-12-11T13:31:24.681Z,6.55
2022-12-11T13:33:56.151Z,7.25
2022-12-11T13:36:36.160Z,7.03
2022-12-11T13:39:08.242Z,6.65
2022-12-11T13:41:40.119Z,7.65
2022-12-11T13:44:16.953Z,7.72
2022-12-11T13:46:45.639Z,8.10
2022-12-11T13:49:22.709Z,7.60
2022-12-11T13:51:56.605Z,7.93
2022-12-11T13:54:26.119Z,9.13
2022-12-11T13:57:03.383Z,11.55
2022-12-11T13:59:36.197Z,8.07
2022-12-11T14:02:16.949Z,7.40
2022-12-11T14:04:45.992Z,7.20
2022-12-11T14:07:14.553Z,6.78
2022-12-11T14:09:47.149Z,6.75
2022-12-11T14:12:21.310Z,5.43
2022-12-11T14:14:54.719Z,6.68
2022-12-11T14:17:27.317Z,6.47
2022-12-11T14:19:57.618Z,6.60
2022-12-11T14:22:27.709Z,6.57
2022-12-11T14:24:57.457Z,7.50
2022-12-11T14:27:27.157Z,6.95
2022-12-11T14:29:57.405Z,6.55
2022-12-11T14:32:33.285Z,7.30
2022-12-11T14:35:03.549Z,7.60
2022-12-11T14:37:32.950Z,6.82
2022-12-11T14:40:04.363Z,6.05
2022-12-11T14:42:40.046Z,6.88
2022-12-11T14:45:20.812Z,6.30
2022-12-11T14:47:49.609Z,6.68
2022-12-11T14:50:23.109Z,6.43
2022-12-11T14:52:54.913Z,5.75
2022-12-11T14:55:26.613Z,5.53
2022-12-11T14:57:58.981Z,5.72
2022-12-11T15:00:32.073Z,5.90
2022-12-11T15:03:02.753Z,5.88
2022-12-11T15:05:37.159Z,7.32
2022-12-11T15:08:25.718Z,6.50
2022-12-11T15:11:04.272Z,6.22
2022-12-11T15:13:33.909Z,6.53
2022-12-11T15:16:05.178Z,7.30
2022-12-11T15:18:37.277Z,7.25
2022-12-11T15:21:09.780Z,6.30
2022-12-11T15:23:48.909Z,6.82
2022-12-11T15:26:17.237Z,7.88
2022-12-11T15:28:45.910Z,9.77
2022-12-11T15:31:28.519Z,6.82
2022-12-11T15:33:57.357Z,9.63
2022-12-11T15:36:32.202Z,9.73
2022-12-11T15:39:02.819Z,11.15
2022-12-11T15:41:34.783Z,15.43
2022-12-11T15:44:05.353Z,14.57
2022-12-11T15:46:38.496Z,11.38
2022-12-11T15:49:13.799Z,9.50
2022-12-11T15:51:43.558Z,9.85
2022-12-11T15:54:12.464Z,9.25
2022-12-11T15:56:40.969Z,9.30
2022-12-11T15:59:09.472Z,9.93
2022-12-11T16:01:39.366Z,9.68
2022-12-11T16:04:07.979Z,9.68
2022-12-11T16:06:36.240Z,10.02
2022-12-11T16:09:05.845Z,9.80
2022-12-11T16:11:34.232Z,10.65
2022-12-11T16:14:04.945Z,9.73
2022-12-11T16:16:33.779Z,11.07
2022-12-11T16:19:03.630Z,10.30
2022-12-11T16:21:32.653Z,10.43
2022-12-11T16:24:01.651Z,10.30
2022-12-11T16:26:30.573Z,10.15
2022-12-11T16:28:59.028Z,11.82
2022-12-11T16:31:27.418Z,12.30
2022-12-11T16:33:55.828Z,10.95
2022-12-11T16:36:26.882Z,12.93
2022-12-11T16:38:55.502Z,11.32
2022-12-11T16:41:25.094Z,11.05
2022-12-11T16:43:54.878Z,10.45
2022-12-11T16:46:25.378Z,11.20
2022-12-11T16:48:54.145Z,11.35
2022-12-11T16:51:23.046Z,11.43
2022-12-11T16:53:53.515Z,11.60
2022-12-11T16:56:21.816Z,12.30
2022-12-11T16:58:50.891Z,11.77
2022-12-11T17:01:19.252Z,11.07
2022-12-11T17:03:48.018Z,10.73
2022-12-11T17:06:18.426Z,12.57
2022-12-11T17:08:47.205Z,12.00
2022-12-11T17:11:19.174Z,11.93
2022-12-11T17:13:47.753Z,13.38
2022-12-11T17:16:18.387Z,12.00
2022-12-11T17:18:46.772Z,11.50
2022-12-11T17:21:17.288Z,12.38
2022-12-11T17:23:46.877Z,11.75
2022-12-11T17:26:17.102Z,12.77
2022-12-11T17:28:46.308Z,11.43
2022-12-11T17:31:17.686Z,11.25
2022-12-11T17:33:47.491Z,12.82
2022-12-11T17:36:17.396Z,11.63
2022-12-11T17:38:45.956Z,11.55
2022-12-11T17:41:20.544Z,13.73
2022-12-11T17:43:50.410Z,14.38
2022-12-11T17:46:19.940Z,15.50
2022-12-11T17:48:50.253Z,13.82
2022-12-11T17:51:25.007Z,15.27
2022-12-11T17:53:57.156Z,14.25
2022-12-11T17:56:29.550Z,17.00
2022-12-11T17:59:01.070Z,19.30
2022-12-11T18:01:31.222Z,21.40
2022-12-11T18:04:02.436Z,17.65
2022-12-11T18:06:32.893Z,14.63
2022-12-11T18:09:02.625Z,15.55
2022-12-11T18:11:34.301Z,16.45
2022-12-11T18:14:05.310Z,13.25
2022-12-11T18:16:37.374Z,14.00
2022-12-11T18:19:08.969Z,14.65
2022-12-11T18:21:42.800Z,13.82
2022-12-11T18:24:13.318Z,11.80
2022-12-11T18:26:44.833Z,18.25
2022-12-11T18:29:15.048Z,16.88
2022-12-11T18:31:44.949Z,12.38
2022-12-11T18:34:13.382Z,12.15
2022-12-11T18:36:42.632Z,11.77
2022-12-11T18:39:11.102Z,10.98
2022-12-11T18:41:40.118Z,10.23
2022-12-11T18:44:10.302Z,11.02
2022-12-11T18:46:39.731Z,9.40
2022-12-11T18:49:08.478Z,8.80
2022-12-11T18:51:37.732Z,8.27
2022-12-11T18:54:06.503Z,8.82
2022-12-11T18:56:34.852Z,8.00
2022-12-11T18:59:03.475Z,9.45
2022-12-11T19:01:34.652Z,10.73
2022-12-11T19:04:07.839Z,10.90
2022-12-11T19:06:40.127Z,10.65
2022-12-11T19:09:09.417Z,9.30
2022-12-11T19:11:40.157Z,8.95
2022-12-11T19:14:09.140Z,9.48
2022-12-11T19:16:41.141Z,11.32
2022-12-11T19:19:12.478Z,9.52
2022-12-11T19:21:41.777Z,9.52
2022-12-11T19:24:13.743Z,9.40
2022-12-11T19:26:42.780Z,11.15
2022-12-11T19:29:11.552Z,8.82
2022-12-11T19:31:41.710Z,9.50
2022-12-11T19:34:10.110Z,9.02
2022-12-11T19:36:38.926Z,8.18
2022-12-11T19:39:12.821Z,9.00
2022-12-11T19:41:44.205Z,9.15
2022-12-11T19:44:14.863Z,9.10
2022-12-11T19:46:46.236Z,8.15
2022-12-11T19:49:16.139Z,19.23
2022-12-11T19:51:45.857Z,26.52
2022-12-11T19:54:19.432Z,44.20
2022-12-11T19:59:20.462Z,17.20
2022-12-11T20:01:51.608Z,62.97
2022-12-11T20:04:22.024Z,59.58
2022-12-11T20:06:51.777Z,41.58
2022-12-11T20:09:21.717Z,27.95
2022-12-11T20:11:52.356Z,22.33
2022-12-11T20:14:25.644Z,12.18
2022-12-11T20:17:15.004Z,9.95
2022-12-11T20:19:45.755Z,8.20
2022-12-11T20:22:16.157Z,7.60
2022-12-11T20:24:47.559Z,7.68
2022-12-11T20:27:17.431Z,7.32
2022-12-11T20:29:47.548Z,6.90
2022-12-11T20:32:18.900Z,7.75
2022-12-11T20:34:48.599Z,10.65
2022-12-11T20:37:18.796Z,12.20
2022-12-11T20:39:48.748Z,8.52
2022-12-11T20:42:18.639Z,8.65
2022-12-11T20:44:49.361Z,7.32
2022-12-11T20:47:22.103Z,5.80
2022-12-11T20:49:52.755Z,6.45
2022-12-11T20:52:23.591Z,6.60
2022-12-11T20:54:53.350Z,6.55
2022-12-11T20:57:23.151Z,6.13
2022-12-11T20:59:52.751Z,5.57
2022-12-11T21:02:24.195Z,6.80
2022-12-11T21:04:53.963Z,6.13
2022-12-11T21:07:23.806Z,6.43
2022-12-11T21:09:53.545Z,6.82
2022-12-11T21:12:29.782Z,7.45
2022-12-11T21:15:01.206Z,7.10
2022-12-11T21:17:33.196Z,7.25
2022-12-11T21:20:03.010Z,6.20
2022-12-11T21:22:32.951Z,6.05
2022-12-11T21:25:02.516Z,6.35
2022-12-11T21:27:31.546Z,6.35
2022-12-11T21:29:59.830Z,6.30
2022-12-11T21:32:30.093Z,6.57
2022-12-11T21:35:01.825Z,6.25
2022-12-11T21:37:30.470Z,6.60
2022-12-11T21:40:00.724Z,5.72
2022-12-11T21:42:29.147Z,6.18
2022-12-11T21:45:37.569Z,6.78
2022-12-11T21:47:46.099Z,6.47
2022-12-11T21:50:15.975Z,6.43
2022-12-11T21:52:44.642Z,6.68
2022-12-11T21:55:13.917Z,6.18
2022-12-11T21:57:42.687Z,5.95
2022-12-11T22:00:12.730Z,6.15
2022-12-11T22:02:41.505Z,6.57
2022-12-11T22:05:11.119Z,6.03
2022-12-11T22:07:41.321Z,6.35
2022-12-11T22:10:10.813Z,6.07
2022-12-11T22:12:39.235Z,5.75
2022-12-11T22:15:09.418Z,6.03
2022-12-11T22:17:39.043Z,6.30
2022-12-11T22:20:08.065Z,6.88
2022-12-11T22:22:37.030Z,6.78
2022-12-11T22:25:10.079Z,6.47
2022-12-11T22:27:38.701Z,8.13
2022-12-11T22:30:08.421Z,6.93
2022-12-11T22:32:36.845Z,7.03
2022-12-11T22:35:06.184Z,6.93
2022-12-11T22:37:34.900Z,7.07
2022-12-11T22:40:03.610Z,7.00
2022-12-11T22:42:33.714Z,7.28
2022-12-11T22:45:02.049Z,6.80
2022-12-11T22:47:30.824Z,6.70
2022-12-11T22:49:59.146Z,7.18
2022-12-11T22:52:27.521Z,7.32
2022-12-11T22:54:55.846Z,9.27
2022-12-11T22:57:24.290Z,10.10
2022-12-11T22:59:54.465Z,10.98
2022-12-11T23:02:22.991Z,11.02
2022-12-11T23:04:51.405Z,11.68
2022-12-11T23:07:19.789Z,10.25
2022-12-11T23:09:48.242Z,12.50
2022-12-11T23:12:16.626Z,10.73
2022-12-11T23:14:45.056Z,10.57
2022-12-11T23:17:14.874Z,10.63
2022-12-11T23:19:43.399Z,9.00
2022-12-11T23:22:11.748Z,7.57
2022-12-11T23:24:40.192Z,7.53
2022-12-11T23:27:09.331Z,6.18
2022-12-11T23:29:37.734Z,5.80
2022-12-11T23:32:06.481Z,6.13
2022-12-11T23:34:36.560Z,6.80
2022-12-11T23:37:04.981Z,5.82
2022-12-11T23:39:33.421Z,6.30
2022-12-11T23:42:01.679Z,6.38
2022-12-11T23:44:30.083Z,5.95
2022-12-11T23:46:58.766Z,8.25
2022-12-11T23:49:27.291Z,6.95
2022-12-11T23:51:58.026Z,6.80
2022-12-11T23:54:26.447Z,7.53
2022-12-11T23:56:55.149Z,7.68
2022-12-11T23:59:23.493Z,7.18
